createdAt,value
2019-05-30T00:02:02.590Z,59.42
2019-05-30T00:07:02.771Z,59.29
2019-05-30T00:12:05.153Z,59.51
2019-05-30T00:17:06.225Z,59.56
2019-05-30T00:22:08.283Z,59.69
2019-05-30T00:27:10.400Z,59.68
2019-05-30T00:32:11.701Z,60.20
2019-05-30T00:37:13.160Z,59.90
2019-05-30T00:42:14.510Z,59.90
2019-05-30T00:47:15.817Z,60.34
2019-05-30T00:52:17.143Z,60.52
2019-05-30T00:57:18.616Z,60.50
2019-05-30T01:02:19.972Z,60.33
2019-05-30T01:07:21.413Z,60.06
2019-05-30T01:12:22.805Z,59.85
2019-05-30T01:17:24.217Z,59.77
2019-05-30T01:22:25.616Z,59.86
2019-05-30T01:27:26.985Z,59.88
2019-05-30T01:32:28.371Z,60.09
2019-05-30T01:37:29.720Z,60.17
2019-05-30T01:42:31.144Z,60.00
2019-05-30T01:47:32.522Z,59.96
2019-05-30T01:52:33.917Z,60.08
2019-05-30T01:57:35.355Z,60.29
2019-05-30T02:02:37.468Z,60.45
2019-05-30T02:07:38.829Z,60.53
2019-05-30T02:12:40.173Z,60.92
2019-05-30T02:17:41.490Z,60.89
2019-05-30T02:22:42.898Z,60.77
2019-05-30T02:27:44.265Z,60.93
2019-05-30T02:32:45.562Z,60.98
2019-05-30T02:37:46.989Z,61.00
2019-05-30T02:42:48.340Z,60.98
2019-05-30T02:47:50.438Z,60.84
2019-05-30T02:52:51.764Z,60.84
2019-05-30T02:57:53.188Z,60.93
2019-05-30T03:02:54.593Z,61.16
2019-05-30T03:07:55.920Z,61.18
2019-05-30T03:12:57.295Z,61.04
2019-05-30T03:17:58.706Z,61.08
2019-05-30T03:23:02.855Z,61.18
2019-05-30T03:28:02.798Z,61.18
2019-05-30T03:33:17.150Z,61.13
2019-05-30T03:38:07.951Z,61.10
2019-05-30T03:43:09.215Z,60.99
2019-05-30T03:48:09.842Z,60.92
2019-05-30T03:53:11.997Z,60.92
2019-05-30T03:58:25.327Z,61.04
2019-05-30T04:03:28.514Z,60.97
2019-05-30T04:08:29.891Z,61.16
2019-05-30T04:13:38.022Z,61.29
2019-05-30T04:18:39.389Z,61.36
2019-05-30T04:23:40.742Z,61.09
2019-05-30T04:28:42.181Z,60.96
2019-05-30T04:33:44.288Z,60.76
2019-05-30T04:38:45.655Z,60.58
2019-05-30T04:43:47.016Z,60.58
2019-05-30T04:48:48.392Z,60.60
2019-05-30T04:53:49.787Z,60.58
2019-05-30T04:58:51.224Z,60.58
2019-05-30T05:03:52.605Z,60.64
2019-05-30T05:08:53.995Z,60.75
2019-05-30T05:13:55.379Z,60.34
2019-05-30T05:18:56.788Z,60.00
2019-05-30T05:23:58.145Z,59.79
2019-05-30T05:28:59.699Z,59.60
2019-05-30T05:34:01.038Z,59.33
2019-05-30T05:39:03.176Z,59.18
2019-05-30T05:44:04.569Z,58.81
2019-05-30T05:49:05.979Z,58.35
2019-05-30T05:54:07.357Z,58.93
2019-05-30T05:59:08.728Z,58.22
2019-05-30T06:04:13.475Z,58.51
2019-05-30T06:09:11.460Z,57.85
2019-05-30T06:14:12.818Z,57.74
2019-05-30T06:19:14.193Z,57.71
2019-05-30T06:24:15.550Z,57.84
2019-05-30T06:29:17.886Z,56.77
2019-05-30T06:34:30.333Z,56.03
2019-05-30T06:39:19.751Z,55.83
2019-05-30T06:44:21.858Z,54.56
2019-05-30T06:49:22.760Z,54.41
2019-05-30T06:54:24.656Z,53.42
2019-05-30T06:59:25.583Z,53.70
2019-05-30T07:04:27.851Z,52.84
2019-05-30T07:09:29.154Z,52.48
2019-05-30T07:14:29.656Z,50.30
2019-05-30T07:19:31.686Z,51.00
2019-05-30T07:24:32.393Z,51.07
2019-05-30T07:29:34.248Z,50.40
2019-05-30T07:34:35.813Z,49.20
2019-05-30T07:39:37.660Z,49.38
2019-05-30T07:44:38.530Z,49.71
2019-05-30T07:49:39.845Z,50.38
2019-05-30T07:54:41.185Z,49.22
2019-05-30T07:59:42.591Z,49.03
2019-05-30T08:04:46.887Z,48.44
2019-05-30T08:09:45.332Z,47.58
2019-05-30T08:14:49.308Z,46.26
2019-05-30T08:19:50.667Z,46.13
2019-05-30T08:24:52.043Z,45.88
2019-05-30T08:29:53.415Z,45.51
2019-05-30T08:34:55.530Z,46.10
2019-05-30T08:39:56.886Z,45.79
2019-05-30T08:44:58.319Z,45.21
2019-05-30T08:50:00.454Z,44.36
2019-05-30T08:55:01.835Z,45.07
2019-05-30T09:00:05.204Z,44.76
2019-05-30T09:05:07.166Z,44.43
2019-05-30T09:10:08.950Z,44.22
2019-05-30T09:15:10.329Z,43.97
2019-05-30T09:20:11.661Z,40.92
2019-05-30T09:25:13.779Z,43.13
2019-05-30T09:30:15.158Z,42.92
2019-05-30T09:35:16.555Z,43.04
2019-05-30T09:40:17.975Z,43.42
2019-05-30T09:45:19.399Z,42.80
2019-05-30T09:50:20.763Z,42.15
2019-05-30T09:55:22.106Z,42.33
2019-05-30T10:00:23.534Z,40.29
2019-05-30T10:05:28.004Z,40.83
2019-05-30T10:10:31.497Z,42.96
2019-05-30T10:15:37.659Z,42.20
2019-05-30T10:20:39.550Z,42.00
2019-05-30T10:25:40.889Z,40.59
2019-05-30T10:30:42.199Z,39.18
2019-05-30T10:35:45.563Z,38.87
2019-05-30T10:40:45.648Z,37.94
2019-05-30T10:45:47.858Z,37.94
2019-05-30T10:50:48.524Z,36.55
2019-05-30T10:55:50.115Z,36.45
2019-05-30T11:00:55.724Z,32.60
2019-05-30T11:06:04.441Z,35.71
2019-05-30T11:11:05.776Z,35.11
2019-05-30T11:16:07.088Z,34.67
2019-05-30T11:21:08.422Z,35.57
2019-05-30T11:26:10.127Z,35.42
2019-05-30T11:31:11.464Z,35.93
2019-05-30T11:36:12.944Z,33.50
2019-05-30T11:41:14.407Z,33.32
2019-05-30T11:46:15.804Z,33.05
2019-05-30T11:51:17.375Z,32.26
2019-05-30T11:56:19.429Z,33.51
2019-05-30T12:01:20.865Z,32.87
2019-05-30T12:06:22.202Z,31.90
2019-05-30T12:11:23.555Z,31.50
2019-05-30T12:16:25.650Z,30.45
2019-05-30T12:21:29.759Z,31.95
2019-05-30T12:26:28.350Z,33.15
2019-05-30T12:31:29.829Z,31.84
2019-05-30T12:36:31.170Z,30.55
2019-05-30T12:41:32.485Z,29.37
2019-05-30T12:46:33.929Z,29.37
2019-05-30T12:51:35.256Z,28.59
2019-05-30T12:56:36.574Z,28.05
2019-05-30T13:01:37.972Z,29.02
2019-05-30T13:06:39.356Z,30.34
2019-05-30T13:11:40.667Z,29.42
2019-05-30T13:16:42.073Z,32.06
2019-05-30T13:21:43.426Z,32.35
2019-05-30T13:26:44.845Z,32.47
2019-05-30T13:31:46.164Z,31.42
2019-05-30T13:36:47.492Z,31.22
2019-05-30T13:41:48.835Z,30.94
2019-05-30T13:46:50.195Z,29.63
2019-05-30T13:51:52.340Z,27.87
2019-05-30T13:56:53.655Z,28.56
2019-05-30T14:01:54.987Z,29.85
2019-05-30T14:06:56.321Z,29.67
2019-05-30T14:11:57.825Z,29.89
2019-05-30T14:17:00.862Z,27.69
2019-05-30T14:22:03.197Z,27.96
2019-05-30T14:27:05.415Z,28.22
2019-05-30T14:32:06.329Z,26.46
2019-05-30T14:37:08.412Z,25.77
2019-05-30T14:42:09.212Z,25.00
2019-05-30T14:47:10.572Z,24.85
2019-05-30T14:52:13.235Z,24.31
2019-05-30T14:57:13.276Z,25.35
2019-05-30T15:02:14.656Z,25.17
2019-05-30T15:07:16.893Z,26.92
2019-05-30T15:12:18.249Z,29.13
2019-05-30T15:17:19.571Z,27.25
2019-05-30T15:22:20.877Z,26.84
2019-05-30T15:27:22.221Z,25.53
2019-05-30T15:32:23.620Z,24.44
2019-05-30T15:37:25.010Z,23.52
2019-05-30T15:42:26.337Z,24.17
2019-05-30T15:47:32.050Z,22.99
2019-05-30T15:52:33.401Z,22.37
2019-05-30T15:57:34.834Z,21.84
2019-05-30T16:02:36.278Z,22.36
2019-05-30T16:07:37.736Z,20.64
2019-05-30T16:12:39.800Z,21.78
2019-05-30T16:17:41.869Z,22.38
2019-05-30T16:22:43.218Z,25.18
2019-05-30T16:27:44.564Z,24.89
2019-05-30T16:32:45.918Z,25.95
2019-05-30T16:37:47.273Z,26.46
2019-05-30T16:42:48.797Z,25.96
2019-05-30T16:47:50.232Z,24.52
2019-05-30T16:52:51.687Z,21.98
2019-05-30T16:57:52.988Z,22.65
2019-05-30T17:02:54.397Z,21.55
2019-05-30T17:07:55.863Z,22.87
2019-05-30T17:12:57.210Z,24.31
2019-05-30T17:17:58.545Z,23.14
2019-05-30T17:22:59.895Z,21.98
2019-05-30T17:28:01.213Z,21.20
2019-05-30T17:33:02.525Z,21.67
2019-05-30T17:38:03.845Z,21.48
2019-05-30T17:43:05.198Z,20.81
2019-05-30T17:48:15.971Z,20.63
2019-05-30T17:53:08.721Z,20.53
2019-05-30T17:58:10.470Z,21.64
2019-05-30T18:03:11.448Z,23.82
2019-05-30T18:08:12.929Z,23.88
2019-05-30T18:13:15.013Z,24.03
2019-05-30T18:18:16.457Z,23.86
2019-05-30T18:23:17.794Z,24.03
2019-05-30T18:28:19.118Z,24.63
2019-05-30T18:33:22.136Z,23.99
2019-05-30T18:38:24.163Z,23.96
2019-05-30T18:43:24.655Z,24.16
2019-05-30T18:48:27.239Z,26.36
2019-05-30T18:53:28.316Z,25.24
2019-05-30T18:58:29.052Z,25.76
2019-05-30T19:03:32.062Z,25.74
2019-05-30T19:08:33.945Z,25.84
2019-05-30T19:13:34.064Z,26.21
2019-05-30T19:18:35.773Z,26.60
2019-05-30T19:23:39.706Z,27.17
2019-05-30T19:28:38.142Z,27.78
2019-05-30T19:33:40.267Z,28.11
2019-05-30T19:38:41.583Z,28.21
2019-05-30T19:43:43.686Z,28.62
2019-05-30T19:48:45.108Z,28.92
2019-05-30T19:53:46.434Z,29.38
2019-05-30T19:58:47.775Z,29.86
2019-05-30T20:03:49.124Z,30.08
2019-05-30T20:08:55.693Z,30.74
2019-05-30T20:13:52.713Z,30.93
2019-05-30T20:18:54.097Z,31.26
2019-05-30T20:23:59.414Z,31.46
2019-05-30T20:28:56.928Z,31.85
2019-05-30T20:33:58.271Z,32.61
2019-05-30T20:38:59.898Z,33.25
2019-05-30T20:44:01.244Z,33.69
2019-05-30T20:49:02.667Z,33.57
2019-05-30T20:54:04.067Z,34.00
2019-05-30T20:59:05.696Z,34.33
2019-05-30T21:04:07.054Z,34.33
2019-05-30T21:09:27.284Z,34.41
2019-05-30T21:14:13.653Z,34.67
2019-05-30T21:19:16.846Z,35.13
2019-05-30T21:24:18.225Z,35.55
2019-05-30T21:29:20.985Z,35.73
2019-05-30T21:34:26.477Z,36.39
2019-05-30T21:39:27.739Z,36.61
2019-05-30T21:44:29.110Z,36.92
2019-05-30T21:49:30.451Z,37.05
2019-05-30T21:54:31.760Z,37.65
2019-05-30T21:59:33.084Z,37.99
2019-05-30T22:04:34.456Z,38.04
2019-05-30T22:09:35.792Z,38.79
2019-05-30T22:14:37.189Z,38.66
2019-05-30T22:19:38.596Z,38.92
2019-05-30T22:24:39.922Z,39.82
2019-05-30T22:29:42.196Z,40.17
2019-05-30T22:34:42.759Z,40.55
2019-05-30T22:39:44.863Z,41.22
2019-05-30T22:44:46.048Z,41.62
2019-05-30T22:49:46.790Z,41.81
2019-05-30T22:54:49.074Z,42.26
2019-05-30T22:59:49.534Z,42.84
2019-05-30T23:04:52.171Z,43.23
2019-05-30T23:09:52.249Z,43.57
2019-05-30T23:14:54.309Z,44.04
2019-05-30T23:19:55.018Z,44.07
2019-05-30T23:24:57.427Z,44.18
2019-05-30T23:29:58.037Z,44.35
2019-05-30T23:34:59.163Z,45.05
2019-05-30T23:40:00.509Z,45.55
2019-05-30T23:45:01.831Z,46.14
2019-05-30T23:50:04.200Z,45.93
2019-05-30T23:55:05.562Z,46.06
